Time,TemperatureF,DewpointF,PressureIn,WindDirection,WindDirectionDegrees,WindSpeedMPH,WindSpeedGustMPH,Humidity,HourlyPrecipIn,Conditions,Clouds,dailyrainin,SoftwareType,DateUTC
2013-02-18 00:02:00,24.4,12.9,29.98,SE,135,0.0,5.0,61,0.00,,,0.00,WUHU21023XXSP,2013-02-18 06:02:00,
2013-02-18 00:08:00,24.4,12.9,29.97,SE,135,0.0,1.0,61,0.00,,,0.00,WUHU21023XXSP,2013-02-18 06:08:00,
2013-02-18 00:15:00,24.4,13.2,29.97,ESE,112,9.0,9.0,62,0.00,,,0.00,WUHU21023XXSP,2013-02-18 06:15:00,
2013-02-18 00:21:00,24.4,13.2,29.97,SE,135,0.0,9.0,62,0.00,,,0.00,WUHU21023XXSP,2013-02-18 06:21:00,
2013-02-18 00:28:00,24.4,13.2,29.96,SE,135,0.0,12.0,62,0.00,,,0.00,WUHU21023XXSP,2013-02-18 06:28:00,
2013-02-18 00:34:00,24.6,13.4,29.96,SE,135,0.0,8.0,62,0.00,,,0.00,WUHU21023XXSP,2013-02-18 06:34:00,
2013-02-18 00:41:00,24.6,13.4,29.96,SSE,157,9.0,9.0,62,0.00,,,0.00,WUHU21023XXSP,2013-02-18 06:41:00,
2013-02-18 00:47:00,24.6,13.4,29.96,East,90,5.0,9.0,62,0.00,,,0.00,WUHU21023XXSP,2013-02-18 06:47:00,
2013-02-18 00:53:00,25.0,13.8,29.95,SE,135,6.0,7.0,62,0.00,,,0.00,WUHU21023XXSP,2013-02-18 06:53:00,
2013-02-18 01:00:00,25.0,14.1,29.95,SE,135,0.0,7.0,63,0.00,,,0.00,WUHU21023XXSP,2013-02-18 07:00:00,
2013-02-18 01:06:00,25.0,14.1,29.96,SSE,157,7.0,7.0,63,0.00,,,0.00,WUHU21023XXSP,2013-02-18 07:06:00,
2013-02-18 01:13:00,25.2,14.3,29.95,SSE,157,0.0,7.0,63,0.00,,,0.00,WUHU21023XXSP,2013-02-18 07:13:00,
2013-02-18 01:19:00,25.2,14.3,29.95,SE,135,0.0,5.0,63,0.00,,,0.00,WUHU21023XXSP,2013-02-18 07:19:00,
2013-02-18 01:26:00,25.2,14.3,29.95,SE,135,0.0,7.0,63,0.00,,,0.00,WUHU21023XXSP,2013-02-18 07:26:00,
2013-02-18 01:32:00,25.2,14.3,29.94,SE,135,11.0,11.0,63,0.00,,,0.00,WUHU21023XXSP,2013-02-18 07:32:00,
2013-02-18 01:38:00,25.2,14.3,29.94,SE,135,0.0,11.0,63,0.00,,,0.00,WUHU21023XXSP,2013-02-18 07:38:00,
2013-02-18 01:45:00,25.2,14.3,29.93,SE,135,0.0,7.0,63,0.00,,,0.00,WUHU21023XXSP,2013-02-18 07:45:00,
2013-02-18 01:51:00,25.2,14.3,29.93,ESE,112,7.0,7.0,63,0.00,,,0.00,WUHU21023XXSP,2013-02-18 07:51:00,
2013-02-18 01:58:00,25.3,14.4,29.93,SSE,157,0.0,7.0,63,0.00,,,0.00,WUHU21023XXSP,2013-02-18 07:58:00,
2013-02-18 02:04:00,25.3,14.4,29.92,ESE,112,0.0,6.0,63,0.00,,,0.00,WUHU21023XXSP,2013-02-18 08:04:00,
2013-02-18 02:11:00,25.3,14.4,29.92,SE,135,6.0,6.0,63,0.00,,,0.00,WUHU21023XXSP,2013-02-18 08:11:00,
2013-02-18 02:17:00,25.3,14.4,29.91,ESE,112,0.0,7.0,63,0.00,,,0.00,WUHU21023XXSP,2013-02-18 08:17:00,
2013-02-18 02:23:00,25.5,14.4,29.91,SE,135,2.0,7.0,63,0.00,,,0.00,WUHU21023XXSP,2013-02-18 08:23:00,
2013-02-18 02:30:00,25.5,15.0,29.90,ESE,112,0.0,2.0,64,0.00,,,0.00,WUHU21023XXSP,2013-02-18 08:30:00,
2013-02-18 02:36:00,25.5,15.0,29.90,SE,135,0.0,0.0,64,0.00,,,0.00,WUHU21023XXSP,2013-02-18 08:36:00,
2013-02-18 02:43:00,25.5,15.0,29.89,SE,135,5.0,5.0,64,0.00,,,0.00,WUHU21023XXSP,2013-02-18 08:43:00,
2013-02-18 02:49:00,25.5,15.0,29.88,SE,135,0.0,6.0,64,0.00,,,0.00,WUHU21023XXSP,2013-02-18 08:49:00,
2013-02-18 02:56:00,25.5,15.0,29.88,SE,135,8.0,8.0,64,0.00,,,0.00,WUHU21023XXSP,2013-02-18 08:56:00,
2013-02-18 03:02:00,25.7,15.1,29.88,ESE,112,3.0,8.0,64,0.00,,,0.00,WUHU21023XXSP,2013-02-18 09:02:00,
2013-02-18 03:08:00,25.7,15.1,29.87,ESE,112,0.0,11.0,64,0.00,,,0.00,WUHU21023XXSP,2013-02-18 09:08:00,
2013-02-18 03:15:00,25.9,15.1,29.86,SE,135,0.0,11.0,64,0.00,,,0.00,WUHU21023XXSP,2013-02-18 09:15:00,
2013-02-18 03:21:00,25.9,15.3,29.86,SE,135,1.0,3.0,64,0.00,,,0.00,WUHU21023XXSP,2013-02-18 09:21:00,
2013-02-18 03:28:00,25.9,15.7,29.86,SE,135,7.0,7.0,65,0.00,,,0.00,WUHU21023XXSP,2013-02-18 09:28:00,
2013-02-18 03:34:00,25.9,15.7,29.85,ESE,112,9.0,9.0,65,0.00,,,0.00,WUHU21023XXSP,2013-02-18 09:34:00,
2013-02-18 03:40:00,26.1,15.7,29.84,SE,135,4.0,9.0,65,0.00,,,0.00,WUHU21023XXSP,2013-02-18 09:40:00,
2013-02-18 03:47:00,26.1,15.8,29.84,ESE,112,0.0,4.0,65,0.00,,,0.00,WUHU21023XXSP,2013-02-18 09:47:00,
2013-02-18 03:53:00,26.1,15.8,29.84,SE,135,0.0,8.0,65,0.00,,,0.00,WUHU21023XXSP,2013-02-18 09:53:00,
2013-02-18 04:00:00,26.1,15.8,29.83,SE,135,2.0,9.0,65,0.00,,,0.00,WUHU21023XXSP,2013-02-18 10:00:00,
2013-02-18 04:06:00,25.9,15.7,29.83,ESE,112,0.0,6.0,65,0.00,,,0.00,WUHU21023XXSP,2013-02-18 10:06:00,
2013-02-18 04:13:00,25.9,15.7,29.82,SE,135,10.0,10.0,65,0.00,,,0.00,WUHU21023XXSP,2013-02-18 10:13:00,
2013-02-18 04:19:00,25.9,15.7,29.82,SE,135,3.0,10.0,65,0.00,,,0.00,WUHU21023XXSP,2013-02-18 10:19:00,
2013-02-18 04:25:00,25.9,16.0,29.82,SSE,157,0.0,3.0,66,0.00,,,0.00,WUHU21023XXSP,2013-02-18 10:25:00,
2013-02-18 04:32:00,25.9,16.0,29.82,SE,135,6.0,8.0,66,0.00,,,0.00,WUHU21023XXSP,2013-02-18 10:32:00,
2013-02-18 04:38:00,25.9,16.0,29.81,SSE,157,8.0,8.0,66,0.00,,,0.00,WUHU21023XXSP,2013-02-18 10:38:00,
2013-02-18 04:45:00,25.9,16.0,29.81,SE,135,2.0,9.0,66,0.00,,,0.00,WUHU21023XXSP,2013-02-18 10:45:00,
2013-02-18 04:51:00,25.9,16.0,29.80,SE,135,0.0,9.0,66,0.00,,,0.00,WUHU21023XXSP,2013-02-18 10:51:00,
2013-02-18 04:58:00,25.9,16.0,29.80,SE,135,0.0,10.0,66,0.00,,,0.00,WUHU21023XXSP,2013-02-18 10:58:00,
2013-02-18 05:04:00,25.9,16.0,29.80,SE,135,3.0,4.0,66,0.00,,,0.00,WUHU21023XXSP,2013-02-18 11:04:00,
2013-02-18 05:10:00,26.1,16.2,29.80,SE,135,0.0,3.0,66,0.00,,,0.00,WUHU21023XXSP,2013-02-18 11:10:00,
2013-02-18 05:17:00,26.2,16.7,29.80,SSE,157,7.0,9.0,67,0.00,,,0.00,WUHU21023XXSP,2013-02-18 11:17:00,
2013-02-18 05:23:00,26.4,16.9,29.79,SE,135,6.0,9.0,67,0.00,,,0.00,WUHU21023XXSP,2013-02-18 11:23:00,
2013-02-18 05:30:00,26.4,16.9,29.79,SE,135,3.0,6.0,67,0.00,,,0.00,WUHU21023XXSP,2013-02-18 11:30:00,
2013-02-18 05:36:00,26.6,17.1,29.78,SE,135,7.0,7.0,67,0.00,,,0.00,WUHU21023XXSP,2013-02-18 11:36:00,
2013-02-18 05:43:00,26.8,17.2,29.78,SE,135,5.0,7.0,67,0.00,,,0.00,WUHU21023XXSP,2013-02-18 11:43:00,
2013-02-18 05:49:00,27.1,17.6,29.77,ESE,112,0.0,7.0,67,0.00,,,0.00,WUHU21023XXSP,2013-02-18 11:49:00,
2013-02-18 05:56:00,27.1,17.6,29.77,SE,135,0.0,0.0,67,0.00,,,0.00,WUHU21023XXSP,2013-02-18 11:56:00,
2013-02-18 06:02:00,27.1,18.0,29.77,SE,135,0.0,0.0,68,0.00,,,0.00,WUHU21023XXSP,2013-02-18 12:02:00,
2013-02-18 06:08:00,27.3,18.1,29.77,SSE,157,0.0,0.0,68,0.00,,,0.00,WUHU21023XXSP,2013-02-18 12:08:00,
2013-02-18 06:15:00,27.3,18.1,29.77,East,90,0.0,0.0,68,0.00,,,0.00,WUHU21023XXSP,2013-02-18 12:15:00,
2013-02-18 06:21:00,27.7,18.5,29.76,ESE,112,0.0,0.0,68,0.00,,,0.00,WUHU21023XXSP,2013-02-18 12:21:00,
2013-02-18 06:28:00,27.7,18.5,29.76,ESE,112,0.0,7.0,68,0.00,,,0.00,WUHU21023XXSP,2013-02-18 12:28:00,
2013-02-18 06:34:00,28.0,19.2,29.75,SE,135,0.0,7.0,69,0.00,,,0.00,WUHU21023XXSP,2013-02-18 12:34:00,
2013-02-18 06:40:00,28.2,19.4,29.75,SSE,157,0.0,0.0,69,0.00,,,0.00,WUHU21023XXSP,2013-02-18 12:40:00,
2013-02-18 06:47:00,28.2,19.0,29.75,ESE,112,3.0,3.0,68,0.00,,,0.00,WUHU21023XXSP,2013-02-18 12:47:00,
2013-02-18 06:53:00,28.2,19.4,29.75,ESE,112,0.0,3.0,69,0.00,,,0.00,WUHU21023XXSP,2013-02-18 12:53:00,
2013-02-18 07:00:00,28.6,19.7,29.75,SE,135,0.0,0.0,69,0.00,,,0.00,WUHU21023XXSP,2013-02-18 13:00:00,
2013-02-18 07:06:00,28.8,19.9,29.75,SSE,157,0.0,6.0,69,0.00,,,0.00,WUHU21023XXSP,2013-02-18 13:06:00,
2013-02-18 07:13:00,29.1,20.2,29.75,ESE,112,0.0,6.0,69,0.00,,,0.00,WUHU21023XXSP,2013-02-18 13:13:00,
2013-02-18 07:19:00,29.3,20.4,29.74,ESE,112,0.0,0.0,69,0.00,,,0.00,WUHU21023XXSP,2013-02-18 13:19:00,
2013-02-18 07:25:00,29.7,20.7,29.75,SE,135,0.0,0.0,69,0.00,,,0.00,WUHU21023XXSP,2013-02-18 13:25:00,
2013-02-18 07:32:00,30.0,21.0,29.75,SSE,157,0.0,0.0,69,0.00,,,0.00,WUHU21023XXSP,2013-02-18 13:32:00,
2013-02-18 07:38:00,30.0,21.0,29.74,SE,135,0.0,0.0,69,0.00,,,0.00,WUHU21023XXSP,2013-02-18 13:38:00,
2013-02-18 07:45:00,30.4,21.4,29.74,SE,135,0.0,0.0,69,0.00,,,0.00,WUHU21023XXSP,2013-02-18 13:45:00,
2013-02-18 07:51:00,30.7,21.7,29.75,SE,135,0.0,0.0,69,0.00,,,0.00,WUHU21023XXSP,2013-02-18 13:51:00,
2013-02-18 07:58:00,31.1,22.1,29.74,SSE,157,0.0,0.0,69,0.00,,,0.00,WUHU21023XXSP,2013-02-18 13:58:00,
2013-02-18 08:04:00,31.3,22.3,29.74,SE,135,0.0,0.0,69,0.00,,,0.00,WUHU21023XXSP,2013-02-18 14:04:00,
2013-02-18 08:10:00,31.6,22.6,29.73,SSE,157,0.0,7.0,69,0.00,,,0.00,WUHU21023XXSP,2013-02-18 14:10:00,
2013-02-18 08:17:00,31.8,22.8,29.74,SSE,157,0.0,0.0,69,0.00,,,0.00,WUHU21023XXSP,2013-02-18 14:17:00,
2013-02-18 08:23:00,32.2,23.2,29.73,SSE,157,0.0,0.0,69,0.00,,,0.00,WUHU21023XXSP,2013-02-18 14:23:00,
2013-02-18 08:30:00,32.5,23.5,29.72,SE,135,0.0,0.0,69,0.00,,,0.00,WUHU21023XXSP,2013-02-18 14:30:00,
2013-02-18 08:36:00,32.9,23.8,29.72,South,180,0.0,2.0,69,0.00,,,0.00,WUHU21023XXSP,2013-02-18 14:36:00,
2013-02-18 08:43:00,33.3,24.1,29.72,SE,135,0.0,2.0,69,0.00,,,0.00,WUHU21023XXSP,2013-02-18 14:43:00,
2013-02-18 08:49:00,33.6,24.5,29.72,South,180,0.0,6.0,69,0.00,,,0.00,WUHU21023XXSP,2013-02-18 14:49:00,
2013-02-18 08:55:00,34.0,24.6,29.72,SSE,157,0.0,6.0,69,0.00,,,0.00,WUHU21023XXSP,2013-02-18 14:55:00,
2013-02-18 09:02:00,34.3,25.2,29.71,SE,135,0.0,7.0,69,0.00,,,0.00,WUHU21023XXSP,2013-02-18 15:02:00,
2013-02-18 09:08:00,34.7,25.5,29.71,SE,135,5.0,7.0,69,0.00,,,0.00,WUHU21023XXSP,2013-02-18 15:08:00,
2013-02-18 09:15:00,35.2,26.1,29.71,South,180,0.0,7.0,69,0.00,,,0.00,WUHU21023XXSP,2013-02-18 15:15:00,
2013-02-18 09:21:00,35.8,26.6,29.71,SE,135,0.0,0.0,69,0.00,,,0.00,WUHU21023XXSP,2013-02-18 15:21:00,
2013-02-18 09:28:00,36.3,27.1,29.71,SSE,157,0.0,0.0,69,0.00,,,0.00,WUHU21023XXSP,2013-02-18 15:28:00,
2013-02-18 09:34:00,36.7,27.1,29.70,SSE,157,0.0,0.0,68,0.00,,,0.00,WUHU21023XXSP,2013-02-18 15:34:00,
2013-02-18 09:40:00,37.2,27.6,29.70,North,0,0.0,0.0,68,0.00,,,0.00,WUHU21023XXSP,2013-02-18 15:40:00,
2013-02-18 09:47:00,37.6,28.0,29.69,SSE,157,5.0,5.0,68,0.00,,,0.00,WUHU21023XXSP,2013-02-18 15:47:00,
2013-02-18 09:53:00,37.9,28.3,29.69,South,180,0.0,5.0,68,0.00,,,0.00,WUHU21023XXSP,2013-02-18 15:53:00,
2013-02-18 10:00:00,38.3,28.6,29.69,SSE,157,0.0,0.0,68,0.00,,,0.00,WUHU21023XXSP,2013-02-18 16:00:00,
2013-02-18 10:06:00,38.7,28.6,29.69,SSE,157,0.0,0.0,67,0.00,,,0.00,WUHU21023XXSP,2013-02-18 16:06:00,
2013-02-18 10:13:00,39.0,28.9,29.69,SE,135,7.0,7.0,67,0.00,,,0.00,WUHU21023XXSP,2013-02-18 16:13:00,
2013-02-18 10:19:00,39.4,29.2,29.68,SSE,157,10.0,10.0,67,0.00,,,0.00,WUHU21023XXSP,2013-02-18 16:19:00,
2013-02-18 10:25:00,39.6,29.4,29.68,SSW,202,8.0,10.0,67,0.00,,,0.00,WUHU21023XXSP,2013-02-18 16:25:00,
2013-02-18 10:32:00,39.9,29.8,29.68,SSE,157,0.0,8.0,67,0.00,,,0.00,WUHU21023XXSP,2013-02-18 16:32:00,
2013-02-18 10:38:00,40.3,30.1,29.67,SE,135,0.0,7.0,67,0.00,,,0.00,WUHU21023XXSP,2013-02-18 16:38:00,
2013-02-18 10:45:00,40.3,29.8,29.67,SSW,202,0.0,8.0,66,0.00,,,0.00,WUHU21023XXSP,2013-02-18 16:45:00,
2013-02-18 10:51:00,40.5,29.9,29.67,South,180,0.0,10.0,66,0.00,,,0.00,WUHU21023XXSP,2013-02-18 16:51:00,
2013-02-18 10:58:00,40.8,30.3,29.67,SSE,157,7.0,7.0,66,0.00,,,0.00,WUHU21023XXSP,2013-02-18 16:58:00,
2013-02-18 11:04:00,41.0,30.5,29.66,SSW,202,0.0,7.0,66,0.00,,,0.00,WUHU21023XXSP,2013-02-18 17:04:00,
2013-02-18 11:10:00,41.2,30.6,29.66,SSE,157,3.0,10.0,66,0.00,,,0.00,WUHU21023XXSP,2013-02-18 17:10:00,
2013-02-18 11:17:00,41.4,30.8,29.66,SE,135,8.0,10.0,66,0.00,,,0.00,WUHU21023XXSP,2013-02-18 17:17:00,
2013-02-18 11:23:00,41.7,31.2,29.65,SSE,157,6.0,9.0,66,0.00,,,0.00,WUHU21023XXSP,2013-02-18 17:23:00,
2013-02-18 11:30:00,41.9,31.4,29.65,ESE,112,0.0,6.0,66,0.00,,,0.00,WUHU21023XXSP,2013-02-18 17:30:00,
2013-02-18 11:36:00,42.1,31.5,29.65,SSW,202,0.0,6.0,66,0.00,,,0.00,WUHU21023XXSP,2013-02-18 17:36:00,
2013-02-18 11:42:00,42.4,31.9,29.64,SSE,157,5.0,5.0,66,0.00,,,0.00,WUHU21023XXSP,2013-02-18 17:42:00,
2013-02-18 11:49:00,42.6,32.0,29.63,SW,225,11.0,11.0,66,0.00,,,0.00,WUHU21023XXSP,2013-02-18 17:49:00,
2013-02-18 11:55:00,43.0,32.4,29.62,SSE,157,13.0,13.0,66,0.00,,,0.00,WUHU21023XXSP,2013-02-18 17:55:00,
2013-02-18 12:02:00,43.3,32.7,29.63,SSE,157,5.0,13.0,66,0.00,,,0.00,WUHU21023XXSP,2013-02-18 18:02:00,
2013-02-18 12:08:00,43.5,32.5,29.62,SE,135,6.0,13.0,65,0.00,,,0.00,WUHU21023XXSP,2013-02-18 18:08:00,
2013-02-18 12:15:00,43.7,33.1,29.62,SSW,202,5.0,10.0,66,0.00,,,0.00,WUHU21023XXSP,2013-02-18 18:15:00,
2013-02-18 12:21:00,44.2,33.2,29.61,SSE,157,0.0,5.0,65,0.00,,,0.00,WUHU21023XXSP,2013-02-18 18:21:00,
2013-02-18 12:27:00,44.6,33.5,29.61,SW,225,0.0,0.0,65,0.00,,,0.00,WUHU21023XXSP,2013-02-18 18:27:00,
2013-02-18 12:34:00,45.1,34.0,29.61,SW,225,0.0,0.0,65,0.00,,,0.00,WUHU21023XXSP,2013-02-18 18:34:00,
2013-02-18 12:40:00,45.1,34.0,29.61,SSW,202,0.0,0.0,65,0.00,,,0.00,WUHU21023XXSP,2013-02-18 18:40:00,
2013-02-18 12:47:00,45.3,34.2,29.61,SSE,157,0.0,7.0,65,0.00,,,0.00,WUHU21023XXSP,2013-02-18 18:47:00,
2013-02-18 12:53:00,45.5,34.4,29.60,SE,135,0.0,4.0,65,0.00,,,0.00,WUHU21023XXSP,2013-02-18 18:53:00,
2013-02-18 13:00:00,46.0,34.9,29.59,South,180,7.0,7.0,65,0.00,,,0.00,WUHU21023XXSP,2013-02-18 19:00:00,
2013-02-18 13:06:00,46.4,35.2,29.59,South,180,7.0,8.0,65,0.00,,,0.00,WUHU21023XXSP,2013-02-18 19:06:00,
2013-02-18 13:12:00,46.6,35.4,29.59,SSE,157,3.0,8.0,65,0.00,,,0.00,WUHU21023XXSP,2013-02-18 19:12:00,
2013-02-18 13:19:00,46.6,35.8,29.59,South,180,7.0,7.0,66,0.00,,,0.00,WUHU21023XXSP,2013-02-18 19:19:00,
2013-02-18 13:25:00,46.6,35.8,29.58,South,180,0.0,7.0,66,0.00,,,0.00,WUHU21023XXSP,2013-02-18 19:25:00,
2013-02-18 13:32:00,46.6,35.8,29.59,SSE,157,6.0,7.0,66,0.00,,,0.00,WUHU21023XXSP,2013-02-18 19:32:00,
2013-02-18 13:38:00,46.9,36.1,29.58,SSE,157,5.0,7.0,66,0.00,,,0.00,WUHU21023XXSP,2013-02-18 19:38:00,
2013-02-18 13:45:00,46.9,36.1,29.58,SE,135,0.0,7.0,66,0.00,,,0.00,WUHU21023XXSP,2013-02-18 19:45:00,
2013-02-18 13:51:00,46.9,36.5,29.58,SSW,202,6.0,6.0,67,0.00,,,0.00,WUHU21023XXSP,2013-02-18 19:51:00,
2013-02-18 13:57:00,46.9,36.5,29.58,SSW,202,0.0,7.0,67,0.00,,,0.00,WUHU21023XXSP,2013-02-18 19:57:00,
2013-02-18 14:04:00,46.9,36.9,29.57,SE,135,0.0,7.0,68,0.00,,,0.00,WUHU21023XXSP,2013-02-18 20:04:00,
2013-02-18 14:10:00,47.1,37.1,29.57,SSE,157,0.0,9.0,68,0.00,,,0.00,WUHU21023XXSP,2013-02-18 20:10:00,
2013-02-18 14:17:00,46.9,36.9,29.57,SSW,202,6.0,9.0,68,0.00,,,0.00,WUHU21023XXSP,2013-02-18 20:17:00,
2013-02-18 14:23:00,46.9,37.5,29.57,SSE,157,5.0,6.0,69,0.00,,,0.00,WUHU21023XXSP,2013-02-18 20:23:00,
2013-02-18 14:30:00,46.9,37.3,29.57,SSE,157,8.0,11.0,69,0.00,,,0.00,WUHU21023XXSP,2013-02-18 20:30:00,
2013-02-18 14:36:00,46.9,37.3,29.56,SSE,157,0.0,8.0,69,0.00,,,0.00,WUHU21023XXSP,2013-02-18 20:36:00,
2013-02-18 14:42:00,46.9,37.3,29.56,South,180,3.0,8.0,69,0.00,,,0.00,WUHU21023XXSP,2013-02-18 20:42:00,
2013-02-18 14:49:00,46.9,37.3,29.56,SSW,202,4.0,5.0,69,0.00,,,0.00,WUHU21023XXSP,2013-02-18 20:49:00,
2013-02-18 14:55:00,46.8,37.5,29.56,SW,225,6.0,6.0,70,0.00,,,0.00,WUHU21023XXSP,2013-02-18 20:55:00,
2013-02-18 15:02:00,46.6,37.4,29.56,SSE,157,0.0,6.0,70,0.00,,,0.00,WUHU21023XXSP,2013-02-18 21:02:00,
2013-02-18 15:08:00,46.6,37.7,29.56,SSW,202,10.0,10.0,71,0.00,,,0.00,WUHU21023XXSP,2013-02-18 21:08:00,
2013-02-18 15:15:00,46.6,38.1,29.56,SSE,157,0.0,10.0,72,0.00,,,0.00,WUHU21023XXSP,2013-02-18 21:15:00,
2013-02-18 15:21:00,46.2,37.4,29.56,SSE,157,0.0,5.0,71,0.00,,,0.00,WUHU21023XXSP,2013-02-18 21:21:00,
2013-02-18 15:28:00,46.2,37.7,29.55,SSW,202,0.0,0.0,72,0.00,,,0.00,WUHU21023XXSP,2013-02-18 21:28:00,
2013-02-18 15:34:00,46.0,37.5,29.54,South,180,0.0,0.0,72,0.00,,,0.00,WUHU21023XXSP,2013-02-18 21:34:00,
2013-02-18 15:40:00,46.0,37.9,29.54,SSE,157,0.0,0.0,73,0.00,,,0.00,WUHU21023XXSP,2013-02-18 21:40:00,
2013-02-18 15:47:00,45.7,37.5,29.54,South,180,1.0,1.0,73,0.00,,,0.00,WUHU21023XXSP,2013-02-18 21:47:00,
2013-02-18 15:53:00,45.7,37.9,29.53,SSW,202,0.0,4.0,74,0.00,,,0.00,WUHU21023XXSP,2013-02-18 21:53:00,
2013-02-18 15:59:00,45.5,37.7,29.54,SSE,157,3.0,4.0,74,0.00,,,0.00,WUHU21023XXSP,2013-02-18 21:59:00,
2013-02-18 16:06:00,45.1,37.7,29.53,SSE,157,0.0,3.0,75,0.00,,,0.00,WUHU21023XXSP,2013-02-18 22:06:00,
2013-02-18 16:12:00,45.1,37.7,29.53,South,180,0.0,0.0,75,0.00,,,0.00,WUHU21023XXSP,2013-02-18 22:12:00,
2013-02-18 16:19:00,45.0,37.5,29.52,SE,135,0.0,3.0,75,0.00,,,0.00,WUHU21023XXSP,2013-02-18 22:19:00,
2013-02-18 16:25:00,45.0,37.8,29.52,SSE,157,0.0,0.0,76,0.00,,,0.00,WUHU21023XXSP,2013-02-18 22:25:00,
2013-02-18 16:32:00,44.8,38.0,29.51,SE,135,0.0,0.0,77,0.00,,,0.00,WUHU21023XXSP,2013-02-18 22:32:00,
2013-02-18 16:38:00,44.6,38.0,29.51,South,180,0.0,0.0,77,0.00,,,0.00,WUHU21023XXSP,2013-02-18 22:38:00,
2013-02-18 16:44:00,44.4,37.6,29.51,SSE,157,0.0,0.0,77,0.00,,,0.00,WUHU21023XXSP,2013-02-18 22:44:00,
2013-02-18 16:51:00,44.4,37.6,29.51,SSW,202,0.0,0.0,77,0.00,,,0.00,WUHU21023XXSP,2013-02-18 22:51:00,
2013-02-18 16:57:00,44.4,38.0,29.50,SSW,202,0.0,0.0,78,0.00,,,0.00,WUHU21023XXSP,2013-02-18 22:57:00,
2013-02-18 17:04:00,44.2,37.8,29.50,South,180,0.0,0.0,78,0.00,,,0.00,WUHU21023XXSP,2013-02-18 23:04:00,
2013-02-18 17:10:00,43.9,37.4,29.50,South,180,0.0,0.0,78,0.00,,,0.00,WUHU21023XXSP,2013-02-18 23:10:00,
2013-02-18 17:17:00,43.5,37.1,29.49,SSE,157,0.0,0.0,78,0.00,,,0.00,WUHU21023XXSP,2013-02-18 23:17:00,
2013-02-18 17:23:00,43.3,36.9,29.48,SE,135,0.0,0.0,78,0.00,,,0.00,WUHU21023XXSP,2013-02-18 23:23:00,
2013-02-18 17:30:00,43.0,36.6,29.49,SE,135,0.0,0.0,78,0.00,,,0.00,WUHU21023XXSP,2013-02-18 23:30:00,
2013-02-18 17:36:00,42.6,36.2,29.49,SSE,157,0.0,0.0,78,0.00,,,0.00,WUHU21023XXSP,2013-02-18 23:36:00,
2013-02-18 17:42:00,42.6,36.5,29.48,SE,135,0.0,0.0,79,0.00,,,0.00,WUHU21023XXSP,2013-02-18 23:42:00,
2013-02-18 17:49:00,42.4,36.4,29.48,SE,135,0.0,0.0,79,0.00,,,0.00,WUHU21023XXSP,2013-02-18 23:49:00,
2013-02-18 17:55:00,42.1,36.0,29.47,SE,135,0.0,0.0,79,0.00,,,0.00,WUHU21023XXSP,2013-02-18 23:55:00,
2013-02-18 18:02:00,41.9,35.8,29.47,SE,135,0.0,0.0,79,0.00,,,0.00,WUHU21023XXSP,2013-02-19 00:02:00,
2013-02-18 18:08:00,41.7,36.0,29.47,SE,135,0.0,0.0,80,0.00,,,0.00,WUHU21023XXSP,2013-02-19 00:08:00,
2013-02-18 18:14:00,41.5,35.8,29.46,SE,135,0.0,0.0,80,0.00,,,0.00,WUHU21023XXSP,2013-02-19 00:14:00,
2013-02-18 18:21:00,41.4,35.6,29.47,SE,135,0.0,0.0,80,0.00,,,0.00,WUHU21023XXSP,2013-02-19 00:21:00,
2013-02-18 18:27:00,41.4,35.9,29.46,SE,135,0.0,0.0,81,0.00,,,0.00,WUHU21023XXSP,2013-02-19 00:27:00,
2013-02-18 18:34:00,41.5,36.4,29.46,SE,135,0.0,0.0,82,0.00,,,0.00,WUHU21023XXSP,2013-02-19 00:34:00,
2013-02-18 18:40:00,41.5,36.4,29.45,SE,135,0.0,0.0,82,0.00,,,0.00,WUHU21023XXSP,2013-02-19 00:40:00,
2013-02-18 18:47:00,41.5,36.4,29.45,SE,135,0.0,0.0,82,0.00,,,0.00,WUHU21023XXSP,2013-02-19 00:47:00,
2013-02-18 18:53:00,41.7,37.2,29.46,WSW,247,0.0,0.0,84,0.00,,,0.00,WUHU21023XXSP,2013-02-19 00:53:00,
2013-02-18 18:59:00,41.7,37.2,29.46,ESE,112,0.0,0.0,84,0.00,,,0.00,WUHU21023XXSP,2013-02-19 00:59:00,
2013-02-18 19:06:00,41.9,37.4,29.45,SSE,157,0.0,0.0,84,0.00,,,0.00,WUHU21023XXSP,2013-02-19 01:06:00,
2013-02-18 19:12:00,41.9,37.4,29.45,WSW,247,0.0,0.0,84,0.00,,,0.00,WUHU21023XXSP,2013-02-19 01:12:00,
2013-02-18 19:19:00,41.9,37.7,29.46,WSW,247,0.0,0.0,85,0.00,,,0.00,WUHU21023XXSP,2013-02-19 01:19:00,
2013-02-18 19:25:00,41.9,37.7,29.46,West,270,0.0,0.0,85,0.00,,,0.00,WUHU21023XXSP,2013-02-19 01:25:00,
2013-02-18 19:32:00,41.9,38.0,29.46,WNW,292,7.0,7.0,86,0.00,,,0.00,WUHU21023XXSP,2013-02-19 01:32:00,
2013-02-18 19:38:00,41.5,37.6,29.46,NW,315,0.0,7.0,86,0.00,,,0.00,WUHU21023XXSP,2013-02-19 01:38:00,
2013-02-18 19:44:00,41.2,37.0,29.45,West,270,9.0,9.0,85,0.00,,,0.00,WUHU21023XXSP,2013-02-19 01:44:00,
2013-02-18 19:51:00,40.5,36.2,29.45,NW,315,2.0,9.0,85,0.00,,,0.00,WUHU21023XXSP,2013-02-19 01:51:00,
2013-02-18 19:57:00,39.9,35.7,29.45,WNW,292,0.0,4.0,85,0.00,,,0.00,WUHU21023XXSP,2013-02-19 01:57:00,
2013-02-18 20:04:00,39.0,34.9,29.44,NW,315,3.0,4.0,85,0.00,,,0.00,WUHU21023XXSP,2013-02-19 02:04:00,
2013-02-18 20:10:00,38.3,33.9,29.44,WNW,292,0.0,6.0,84,0.00,,,0.00,WUHU21023XXSP,2013-02-19 02:10:00,
2013-02-18 20:16:00,37.8,33.3,29.44,WNW,292,0.0,3.0,84,0.00,,,0.00,WUHU21023XXSP,2013-02-19 02:16:00,
2013-02-18 20:23:00,37.2,32.8,29.44,NW,315,0.0,4.0,84,0.00,,,0.00,WUHU21023XXSP,2013-02-19 02:23:00,
2013-02-18 20:29:00,36.7,32.3,29.44,WNW,292,0.0,4.0,84,0.00,,,0.00,WUHU21023XXSP,2013-02-19 02:29:00,
2013-02-18 20:36:00,36.3,31.9,29.44,WNW,292,3.0,3.0,84,0.00,,,0.00,WUHU21023XXSP,2013-02-19 02:36:00,
2013-02-18 20:42:00,35.8,31.4,29.44,WNW,292,1.0,3.0,84,0.00,,,0.00,WUHU21023XXSP,2013-02-19 02:42:00,
2013-02-18 20:49:00,35.2,30.8,29.44,WNW,292,0.0,1.0,84,0.00,,,0.00,WUHU21023XXSP,2013-02-19 02:49:00,
2013-02-18 20:55:00,34.7,30.3,29.44,WNW,292,0.0,0.0,84,0.00,,,0.00,WUHU21023XXSP,2013-02-19 02:55:00,
2013-02-18 21:01:00,34.3,29.9,29.44,WNW,292,0.0,0.0,84,0.00,,,0.00,WUHU21023XXSP,2013-02-19 03:01:00,
2013-02-18 21:08:00,33.8,29.7,29.45,WNW,292,0.0,0.0,85,0.00,,,0.00,WUHU21023XXSP,2013-02-19 03:08:00,
2013-02-18 21:14:00,33.4,29.3,29.44,WNW,292,0.0,0.0,85,0.00,,,0.00,WUHU21023XXSP,2013-02-19 03:14:00,
2013-02-18 21:21:00,33.3,29.2,29.44,West,270,0.0,0.0,85,0.00,,,0.00,WUHU21023XXSP,2013-02-19 03:21:00,
2013-02-18 21:27:00,33.1,29.0,29.44,WNW,292,0.0,0.0,85,0.00,,,0.00,WUHU21023XXSP,2013-02-19 03:27:00,
2013-02-18 21:34:00,32.9,29.1,29.44,WNW,292,0.0,0.0,86,0.00,,,0.00,WUHU21023XXSP,2013-02-19 03:34:00,
2013-02-18 21:40:00,32.7,29.0,29.44,West,270,0.0,0.0,86,0.00,,,0.00,WUHU21023XXSP,2013-02-19 03:40:00,
2013-02-18 21:46:00,32.7,29.0,29.46,WNW,292,0.0,0.0,86,0.00,,,0.00,WUHU21023XXSP,2013-02-19 03:46:00,
2013-02-18 21:53:00,32.7,29.0,29.46,WNW,292,0.0,0.0,86,0.00,,,0.00,WUHU21023XXSP,2013-02-19 03:53:00,
2013-02-18 21:59:00,32.7,29.0,29.46,WNW,292,0.0,0.0,86,0.00,,,0.00,WUHU21023XXSP,2013-02-19 03:59:00,
2013-02-18 22:06:00,32.7,29.3,29.46,West,270,0.0,0.0,87,0.00,,,0.00,WUHU21023XXSP,2013-02-19 04:06:00,
2013-02-18 22:12:00,32.7,29.3,29.47,WNW,292,0.0,0.0,87,0.00,,,0.00,WUHU21023XXSP,2013-02-19 04:12:00,
2013-02-18 22:19:00,32.7,29.3,29.46,WNW,292,0.0,0.0,87,0.00,,,0.00,WUHU21023XXSP,2013-02-19 04:19:00,
2013-02-18 22:26:00,32.7,29.3,29.47,WSW,247,0.0,0.0,87,0.00,,,0.00,WUHU21023XXSP,2013-02-19 04:26:00,
2013-02-18 22:32:00,32.7,29.3,29.47,West,270,0.0,0.0,87,0.00,,,0.00,WUHU21023XXSP,2013-02-19 04:32:00,
2013-02-18 22:38:00,32.7,29.3,29.47,West,270,0.0,0.0,87,0.00,,,0.00,WUHU21023XXSP,2013-02-19 04:38:00,
2013-02-18 22:44:00,32.7,29.3,29.47,WNW,292,0.0,0.0,87,0.00,,,0.00,WUHU21023XXSP,2013-02-19 04:44:00,
2013-02-18 22:51:00,32.7,29.3,29.48,WNW,292,0.0,0.0,87,0.00,,,0.00,WUHU21023XXSP,2013-02-19 04:51:00,
2013-02-18 22:57:00,32.7,29.3,29.49,West,270,0.0,0.0,87,0.00,,,0.00,WUHU21023XXSP,2013-02-19 04:57:00,
2013-02-18 23:02:00,32.7,29.3,29.48,WNW,292,0.0,0.0,87,0.00,,,0.00,WUHU21023XXSP,2013-02-19 05:02:00,
2013-02-18 23:04:00,32.7,29.3,29.48,West,270,0.0,0.0,87,0.00,,,0.00,WUHU21023XXSP,2013-02-19 05:04:00,
2013-02-18 23:10:00,32.5,29.3,29.49,WNW,292,0.0,0.0,87,0.00,,,0.00,WUHU21023XXSP,2013-02-19 05:10:00,
2013-02-18 23:12:00,32.5,29.1,29.49,NW,315,0.0,0.0,87,0.00,,,0.00,WUHU21023XXSP,2013-02-19 05:12:00,
2013-02-18 23:19:00,32.5,29.1,29.49,WNW,292,0.0,0.0,87,0.00,,,0.00,WUHU21023XXSP,2013-02-19 05:19:00,
2013-02-18 23:23:00,32.4,28.9,29.50,NW,315,0.0,0.0,87,0.00,,,0.00,WUHU21023XXSP,2013-02-19 05:23:00,
2013-02-18 23:29:00,32.2,28.8,29.51,WNW,292,0.0,0.0,87,0.00,,,0.00,WUHU21023XXSP,2013-02-19 05:29:00,
2013-02-18 23:36:00,31.8,28.4,29.51,NW,315,0.0,0.0,87,0.00,,,0.00,WUHU21023XXSP,2013-02-19 05:36:00,
2013-02-18 23:42:00,31.8,28.4,29.51,WNW,292,0.0,0.0,87,0.00,,,0.00,WUHU21023XXSP,2013-02-19 05:42:00,
2013-02-18 23:49:00,31.6,28.3,29.51,West,270,0.0,0.0,87,0.00,,,0.00,WUHU21023XXSP,2013-02-19 05:49:00,
2013-02-18 23:55:00,30.9,27.7,29.52,West,270,0.0,0.0,87,0.00,,,0.00,WUHU21023XXSP,2013-02-19 05:55:00,